sensor_id;sensor_type;location;lat;lon;timestamp;temperature;humidity
28247;DHT22;34504;53.178;22.058;2022-10-31T00:01:44;9.80;99.90
28247;DHT22;34504;53.178;22.058;2022-10-31T00:04:12;9.70;99.90
28247;DHT22;34504;53.178;22.058;2022-10-31T00:06:39;9.70;99.90
28247;DHT22;34504;53.178;22.058;2022-10-31T00:09:09;9.70;99.90
28247;DHT22;34504;53.178;22.058;2022-10-31T00:11:38;9.70;99.90
28247;DHT22;34504;53.178;22.058;2022-10-31T00:14:06;9.60;99.90
28247;DHT22;34504;53.178;22.058;2022-10-31T00:16:34;9.60;99.90
28247;DHT22;34504;53.178;22.058;2022-10-31T00:19:04;9.60;99.90
28247;DHT22;34504;53.178;22.058;2022-10-31T00:21:33;9.50;99.90
28247;DHT22;34504;53.178;22.058;2022-10-31T00:24:02;9.50;99.90
28247;DHT22;34504;53.178;22.058;2022-10-31T00:26:30;9.50;99.90
28247;DHT22;34504;53.178;22.058;2022-10-31T00:28:59;9.40;99.90
28247;DHT22;34504;53.178;22.058;2022-10-31T00:31:27;9.40;99.90
28247;DHT22;34504;53.178;22.058;2022-10-31T00:33:56;9.40;99.90
28247;DHT22;34504;53.178;22.058;2022-10-31T00:36:26;9.40;99.90
28247;DHT22;34504;53.178;22.058;2022-10-31T00:38:54;9.40;99.90
28247;DHT22;34504;53.178;22.058;2022-10-31T00:41:23;9.40;99.90
28247;DHT22;34504;53.178;22.058;2022-10-31T00:43:52;9.40;99.90
28247;DHT22;34504;53.178;22.058;2022-10-31T00:46:19;9.50;99.90
28247;DHT22;34504;53.178;22.058;2022-10-31T00:48:50;9.50;99.90
28247;DHT22;34504;53.178;22.058;2022-10-31T00:51:18;9.50;99.90
28247;DHT22;34504;53.178;22.058;2022-10-31T00:53:46;9.50;99.90
28247;DHT22;34504;53.178;22.058;2022-10-31T00:56:14;9.60;99.90
28247;DHT22;34504;53.178;22.058;2022-10-31T00:58:42;9.60;99.90
28247;DHT22;34504;53.178;22.058;2022-10-31T01:01:10;9.60;99.90
28247;DHT22;34504;53.178;22.058;2022-10-31T01:03:38;9.60;99.90
28247;DHT22;34504;53.178;22.058;2022-10-31T01:06:13;9.60;99.90
28247;DHT22;34504;53.178;22.058;2022-10-31T01:08:41;9.60;99.90
28247;DHT22;34504;53.178;22.058;2022-10-31T01:11:21;9.60;99.90
28247;DHT22;34504;53.178;22.058;2022-10-31T01:13:53;9.60;99.90
28247;DHT22;34504;53.178;22.058;2022-10-31T01:16:24;9.70;99.90
28247;DHT22;34504;53.178;22.058;2022-10-31T01:18:53;9.60;99.90
28247;DHT22;34504;53.178;22.058;2022-10-31T01:21:25;9.70;99.90
28247;DHT22;34504;53.178;22.058;2022-10-31T01:23:57;9.70;99.90
28247;DHT22;34504;53.178;22.058;2022-10-31T01:26:30;9.70;99.90
28247;DHT22;34504;53.178;22.058;2022-10-31T01:29:00;9.70;99.90
28247;DHT22;34504;53.178;22.058;2022-10-31T01:31:31;9.70;99.90
28247;DHT22;34504;53.178;22.058;2022-10-31T01:34:00;9.70;99.90
28247;DHT22;34504;53.178;22.058;2022-10-31T01:36:30;9.70;99.90
28247;DHT22;34504;53.178;22.058;2022-10-31T01:39:07;9.70;99.90
28247;DHT22;34504;53.178;22.058;2022-10-31T01:41:37;9.80;99.90
28247;DHT22;34504;53.178;22.058;2022-10-31T01:47:04;9.80;99.90
28247;DHT22;34504;53.178;22.058;2022-10-31T01:49:54;9.80;99.90
28247;DHT22;34504;53.178;22.058;2022-10-31T01:52:26;9.80;99.90
28247;DHT22;34504;53.178;22.058;2022-10-31T01:55:03;9.90;99.90
28247;DHT22;34504;53.178;22.058;2022-10-31T01:57:33;9.90;99.90
28247;DHT22;34504;53.178;22.058;2022-10-31T02:00:06;9.90;99.90
28247;DHT22;34504;53.178;22.058;2022-10-31T02:02:40;10.00;99.90
28247;DHT22;34504;53.178;22.058;2022-10-31T02:05:14;10.00;99.90
28247;DHT22;34504;53.178;22.058;2022-10-31T02:07:52;10.00;99.90
28247;DHT22;34504;53.178;22.058;2022-10-31T02:10:27;10.00;99.90
28247;DHT22;34504;53.178;22.058;2022-10-31T02:12:58;10.00;99.90
28247;DHT22;34504;53.178;22.058;2022-10-31T02:15:29;10.00;99.90
28247;DHT22;34504;53.178;22.058;2022-10-31T02:17:57;10.10;99.90
28247;DHT22;34504;53.178;22.058;2022-10-31T02:20:35;10.10;99.90
28247;DHT22;34504;53.178;22.058;2022-10-31T02:23:26;10.10;99.90
28247;DHT22;34504;53.178;22.058;2022-10-31T02:32:10;10.10;99.90
28247;DHT22;34504;53.178;22.058;2022-10-31T02:37:51;10.10;99.90
28247;DHT22;34504;53.178;22.058;2022-10-31T02:40:54;10.10;99.90
28247;DHT22;34504;53.178;22.058;2022-10-31T02:46:23;10.10;99.90
28247;DHT22;34504;53.178;22.058;2022-10-31T02:48:56;10.20;99.90
28247;DHT22;34504;53.178;22.058;2022-10-31T02:51:26;10.20;99.90
28247;DHT22;34504;53.178;22.058;2022-10-31T02:53:54;10.10;99.90
28247;DHT22;34504;53.178;22.058;2022-10-31T02:56:22;10.20;99.90
28247;DHT22;34504;53.178;22.058;2022-10-31T02:58:59;10.20;99.90
28247;DHT22;34504;53.178;22.058;2022-10-31T03:02:04;10.20;99.90
28247;DHT22;34504;53.178;22.058;2022-10-31T03:15:21;10.10;99.90
28247;DHT22;34504;53.178;22.058;2022-10-31T03:18:17;10.10;99.90
28247;DHT22;34504;53.178;22.058;2022-10-31T03:20:54;10.00;99.90
28247;DHT22;34504;53.178;22.058;2022-10-31T03:23:24;10.00;99.90
28247;DHT22;34504;53.178;22.058;2022-10-31T03:25:54;10.00;99.90
28247;DHT22;34504;53.178;22.058;2022-10-31T03:28:33;9.90;99.90
28247;DHT22;34504;53.178;22.058;2022-10-31T03:31:05;9.90;99.90
28247;DHT22;34504;53.178;22.058;2022-10-31T03:33:38;9.90;99.90
28247;DHT22;34504;53.178;22.058;2022-10-31T03:36:10;9.80;99.90
28247;DHT22;34504;53.178;22.058;2022-10-31T03:38:41;9.80;99.90
28247;DHT22;34504;53.178;22.058;2022-10-31T03:41:17;9.80;99.90
28247;DHT22;34504;53.178;22.058;2022-10-31T03:43:52;9.70;99.90
28247;DHT22;34504;53.178;22.058;2022-10-31T03:46:23;9.70;99.90
28247;DHT22;34504;53.178;22.058;2022-10-31T03:48:54;9.70;99.90
28247;DHT22;34504;53.178;22.058;2022-10-31T03:51:27;9.70;99.90
28247;DHT22;34504;53.178;22.058;2022-10-31T03:54:08;9.60;99.90
28247;DHT22;34504;53.178;22.058;2022-10-31T03:57:06;9.60;99.90
28247;DHT22;34504;53.178;22.058;2022-10-31T03:59:41;9.60;99.90
28247;DHT22;34504;53.178;22.058;2022-10-31T04:02:14;9.50;99.90
28247;DHT22;34504;53.178;22.058;2022-10-31T04:04:44;9.50;99.90
28247;DHT22;34504;53.178;22.058;2022-10-31T04:07:14;9.50;99.90
28247;DHT22;34504;53.178;22.058;2022-10-31T04:09:44;9.50;99.90
28247;DHT22;34504;53.178;22.058;2022-10-31T04:12:15;9.40;99.90
28247;DHT22;34504;53.178;22.058;2022-10-31T04:15:15;9.40;99.90
28247;DHT22;34504;53.178;22.058;2022-10-31T04:17:45;9.30;99.90
28247;DHT22;34504;53.178;22.058;2022-10-31T04:20:17;9.30;99.90
28247;DHT22;34504;53.178;22.058;2022-10-31T04:22:45;9.30;99.90
28247;DHT22;34504;53.178;22.058;2022-10-31T04:25:13;9.20;99.90
28247;DHT22;34504;53.178;22.058;2022-10-31T04:27:41;9.20;99.90
28247;DHT22;34504;53.178;22.058;2022-10-31T04:30:09;9.20;99.90
28247;DHT22;34504;53.178;22.058;2022-10-31T04:32:40;9.20;99.90
28247;DHT22;34504;53.178;22.058;2022-10-31T04:35:08;9.10;99.90
28247;DHT22;34504;53.178;22.058;2022-10-31T04:37:37;9.10;99.90
28247;DHT22;34504;53.178;22.058;2022-10-31T04:40:05;9.10;99.90
28247;DHT22;34504;53.178;22.058;2022-10-31T04:43:08;9.10;99.90
28247;DHT22;34504;53.178;22.058;2022-10-31T04:45:38;9.10;99.90
28247;DHT22;34504;53.178;22.058;2022-10-31T04:48:06;9.10;99.90
28247;DHT22;34504;53.178;22.058;2022-10-31T04:50:35;9.00;99.90
28247;DHT22;34504;53.178;22.058;2022-10-31T04:53:04;9.00;99.90
28247;DHT22;34504;53.178;22.058;2022-10-31T04:55:38;9.00;99.90
28247;DHT22;34504;53.178;22.058;2022-10-31T04:58:22;9.00;99.90
28247;DHT22;34504;53.178;22.058;2022-10-31T05:00:54;8.90;99.90
28247;DHT22;34504;53.178;22.058;2022-10-31T05:03:23;8.90;99.90
28247;DHT22;34504;53.178;22.058;2022-10-31T05:05:51;8.90;99.90
28247;DHT22;34504;53.178;22.058;2022-10-31T05:08:19;8.80;99.90
28247;DHT22;34504;53.178;22.058;2022-10-31T05:10:49;8.80;99.90
28247;DHT22;34504;53.178;22.058;2022-10-31T05:13:17;8.80;99.90
28247;DHT22;34504;53.178;22.058;2022-10-31T05:16:11;8.70;99.90
28247;DHT22;34504;53.178;22.058;2022-10-31T05:18:48;8.70;99.90
28247;DHT22;34504;53.178;22.058;2022-10-31T05:21:35;8.70;99.90
28247;DHT22;34504;53.178;22.058;2022-10-31T05:24:04;8.70;99.90
28247;DHT22;34504;53.178;22.058;2022-10-31T05:26:33;8.60;99.90
28247;DHT22;34504;53.178;22.058;2022-10-31T05:29:02;8.60;99.90
28247;DHT22;34504;53.178;22.058;2022-10-31T05:31:30;8.50;99.90
28247;DHT22;34504;53.178;22.058;2022-10-31T05:33:58;8.50;99.90
28247;DHT22;34504;53.178;22.058;2022-10-31T05:36:44;8.40;99.90
28247;DHT22;34504;53.178;22.058;2022-10-31T05:39:16;8.40;99.90
28247;DHT22;34504;53.178;22.058;2022-10-31T05:41:47;8.40;99.90
28247;DHT22;34504;53.178;22.058;2022-10-31T05:44:34;8.40;99.90
28247;DHT22;34504;53.178;22.058;2022-10-31T05:47:05;8.40;99.90
28247;DHT22;34504;53.178;22.058;2022-10-31T05:49:51;8.40;99.90
28247;DHT22;34504;53.178;22.058;2022-10-31T05:52:37;8.40;99.90
28247;DHT22;34504;53.178;22.058;2022-10-31T05:55:16;8.30;99.90
28247;DHT22;34504;53.178;22.058;2022-10-31T05:57:58;8.30;99.90
28247;DHT22;34504;53.178;22.058;2022-10-31T06:00:27;8.30;99.90
28247;DHT22;34504;53.178;22.058;2022-10-31T06:03:05;8.40;99.90
28247;DHT22;34504;53.178;22.058;2022-10-31T06:05:57;8.30;99.90
28247;DHT22;34504;53.178;22.058;2022-10-31T06:08:30;8.40;99.90
28247;DHT22;34504;53.178;22.058;2022-10-31T06:11:05;8.40;99.90
28247;DHT22;34504;53.178;22.058;2022-10-31T06:13:53;8.40;99.90
28247;DHT22;34504;53.178;22.058;2022-10-31T06:16:25;8.40;99.90
28247;DHT22;34504;53.178;22.058;2022-10-31T06:18:57;8.50;99.90
28247;DHT22;34504;53.178;22.058;2022-10-31T06:21:26;8.50;99.90
28247;DHT22;34504;53.178;22.058;2022-10-31T06:23:54;8.50;99.90
28247;DHT22;34504;53.178;22.058;2022-10-31T06:26:32;8.50;99.90
28247;DHT22;34504;53.178;22.058;2022-10-31T06:29:02;8.60;99.90
28247;DHT22;34504;53.178;22.058;2022-10-31T06:31:57;8.60;99.90
28247;DHT22;34504;53.178;22.058;2022-10-31T06:34:25;8.70;99.90
28247;DHT22;34504;53.178;22.058;2022-10-31T06:36:53;8.70;99.90
28247;DHT22;34504;53.178;22.058;2022-10-31T06:39:24;8.80;99.90
28247;DHT22;34504;53.178;22.058;2022-10-31T06:41:53;8.80;99.90
28247;DHT22;34504;53.178;22.058;2022-10-31T06:44:22;8.80;99.90
28247;DHT22;34504;53.178;22.058;2022-10-31T06:47:00;8.80;99.90
28247;DHT22;34504;53.178;22.058;2022-10-31T06:49:51;8.90;99.90
28247;DHT22;34504;53.178;22.058;2022-10-31T06:52:22;8.90;99.90
28247;DHT22;34504;53.178;22.058;2022-10-31T06:54:51;9.00;99.90
28247;DHT22;34504;53.178;22.058;2022-10-31T06:57:21;9.00;99.90
28247;DHT22;34504;53.178;22.058;2022-10-31T06:59:49;9.10;99.90
28247;DHT22;34504;53.178;22.058;2022-10-31T07:02:30;9.10;99.90
28247;DHT22;34504;53.178;22.058;2022-10-31T07:04:58;9.20;99.90
28247;DHT22;34504;53.178;22.058;2022-10-31T07:07:26;9.20;99.90
28247;DHT22;34504;53.178;22.058;2022-10-31T07:09:54;9.30;99.90
28247;DHT22;34504;53.178;22.058;2022-10-31T07:12:36;9.30;99.90
28247;DHT22;34504;53.178;22.058;2022-10-31T07:15:04;9.40;99.90
28247;DHT22;34504;53.178;22.058;2022-10-31T07:17:33;9.40;99.90
28247;DHT22;34504;53.178;22.058;2022-10-31T07:20:01;9.50;99.90
28247;DHT22;34504;53.178;22.058;2022-10-31T07:22:35;9.50;99.90
28247;DHT22;34504;53.178;22.058;2022-10-31T07:25:06;9.60;99.90
28247;DHT22;34504;53.178;22.058;2022-10-31T07:27:53;9.60;99.90
28247;DHT22;34504;53.178;22.058;2022-10-31T07:30:21;9.70;99.90
28247;DHT22;34504;53.178;22.058;2022-10-31T07:32:53;9.70;99.90
28247;DHT22;34504;53.178;22.058;2022-10-31T07:35:27;9.80;99.90
28247;DHT22;34504;53.178;22.058;2022-10-31T07:38:07;9.80;99.90
28247;DHT22;34504;53.178;22.058;2022-10-31T07:40:36;9.90;99.90
28247;DHT22;34504;53.178;22.058;2022-10-31T07:43:04;9.90;99.90
28247;DHT22;34504;53.178;22.058;2022-10-31T07:45:57;10.00;99.90
28247;DHT22;34504;53.178;22.058;2022-10-31T07:48:41;10.10;99.90
28247;DHT22;34504;53.178;22.058;2022-10-31T07:51:29;10.20;99.90
28247;DHT22;34504;53.178;22.058;2022-10-31T07:54:18;10.20;99.90
28247;DHT22;34504;53.178;22.058;2022-10-31T07:56:46;10.30;99.90
28247;DHT22;34504;53.178;22.058;2022-10-31T07:59:15;10.30;99.90
28247;DHT22;34504;53.178;22.058;2022-10-31T08:01:42;10.40;99.90
28247;DHT22;34504;53.178;22.058;2022-10-31T08:04:34;10.40;99.90
28247;DHT22;34504;53.178;22.058;2022-10-31T08:07:22;10.50;99.90
28247;DHT22;34504;53.178;22.058;2022-10-31T08:09:57;10.60;99.90
28247;DHT22;34504;53.178;22.058;2022-10-31T08:12:29;10.60;99.90
28247;DHT22;34504;53.178;22.058;2022-10-31T08:14:57;10.70;99.90
28247;DHT22;34504;53.178;22.058;2022-10-31T08:17:25;10.70;99.90
28247;DHT22;34504;53.178;22.058;2022-10-31T08:19:56;10.80;99.90
28247;DHT22;34504;53.178;22.058;2022-10-31T08:22:31;10.80;99.90
28247;DHT22;34504;53.178;22.058;2022-10-31T08:25:01;10.90;99.90
28247;DHT22;34504;53.178;22.058;2022-10-31T08:27:29;10.90;99.90
28247;DHT22;34504;53.178;22.058;2022-10-31T08:30:00;11.00;99.90
28247;DHT22;34504;53.178;22.058;2022-10-31T08:32:28;11.10;99.90
28247;DHT22;34504;53.178;22.058;2022-10-31T08:35:15;11.10;99.90
28247;DHT22;34504;53.178;22.058;2022-10-31T08:38:02;11.20;99.90
28247;DHT22;34504;53.178;22.058;2022-10-31T08:40:32;11.20;99.90
28247;DHT22;34504;53.178;22.058;2022-10-31T08:43:04;11.30;99.90
28247;DHT22;34504;53.178;22.058;2022-10-31T08:45:34;11.40;99.90
28247;DHT22;34504;53.178;22.058;2022-10-31T08:48:05;11.40;99.90
28247;DHT22;34504;53.178;22.058;2022-10-31T08:50:34;11.50;99.90
28247;DHT22;34504;53.178;22.058;2022-10-31T08:53:03;11.60;99.90
28247;DHT22;34504;53.178;22.058;2022-10-31T08:55:35;11.60;99.90
28247;DHT22;34504;53.178;22.058;2022-10-31T08:58:11;11.60;99.90
28247;DHT22;34504;53.178;22.058;2022-10-31T09:00:51;11.70;99.90
28247;DHT22;34504;53.178;22.058;2022-10-31T09:03:22;11.80;99.90
28247;DHT22;34504;53.178;22.058;2022-10-31T09:06:00;11.80;99.90
28247;DHT22;34504;53.178;22.058;2022-10-31T09:08:32;11.90;99.90
28247;DHT22;34504;53.178;22.058;2022-10-31T09:11:02;12.00;99.90
28247;DHT22;34504;53.178;22.058;2022-10-31T09:13:59;12.00;99.90
28247;DHT22;34504;53.178;22.058;2022-10-31T09:16:53;12.10;99.90
28247;DHT22;34504;53.178;22.058;2022-10-31T09:19:29;12.20;99.90
28247;DHT22;34504;53.178;22.058;2022-10-31T09:21:58;12.20;99.90
28247;DHT22;34504;53.178;22.058;2022-10-31T09:24:26;12.30;99.90
28247;DHT22;34504;53.178;22.058;2022-10-31T09:26:54;12.40;99.90
28247;DHT22;34504;53.178;22.058;2022-10-31T09:29:27;12.40;99.90
28247;DHT22;34504;53.178;22.058;2022-10-31T09:31:59;12.30;99.90
28247;DHT22;34504;53.178;22.058;2022-10-31T09:34:31;12.30;99.90
28247;DHT22;34504;53.178;22.058;2022-10-31T09:37:12;12.40;99.90
28247;DHT22;34504;53.178;22.058;2022-10-31T09:39:40;12.40;99.90
28247;DHT22;34504;53.178;22.058;2022-10-31T09:48:31;12.60;99.60
28247;DHT22;34504;53.178;22.058;2022-10-31T09:51:19;12.60;99.50
28247;DHT22;34504;53.178;22.058;2022-10-31T09:54:20;12.60;99.60
28247;DHT22;34504;53.178;22.058;2022-10-31T09:56:48;12.60;99.50
28247;DHT22;34504;53.178;22.058;2022-10-31T09:59:31;12.70;99.80
28247;DHT22;34504;53.178;22.058;2022-10-31T10:22:31;13.00;99.20
28247;DHT22;34504;53.178;22.058;2022-10-31T10:30:28;13.10;99.00
28247;DHT22;34504;53.178;22.058;2022-10-31T10:33:29;13.10;98.90
28247;DHT22;34504;53.178;22.058;2022-10-31T10:36:05;13.10;98.70
28247;DHT22;34504;53.178;22.058;2022-10-31T10:39:08;13.00;98.60
28247;DHT22;34504;53.178;22.058;2022-10-31T10:41:36;13.00;98.40
28247;DHT22;34504;53.178;22.058;2022-10-31T10:44:09;13.00;98.80
28247;DHT22;34504;53.178;22.058;2022-10-31T10:57:53;13.10;98.40
28247;DHT22;34504;53.178;22.058;2022-10-31T11:00:31;13.00;98.40
28247;DHT22;34504;53.178;22.058;2022-10-31T11:02:59;13.00;98.50
28247;DHT22;34504;53.178;22.058;2022-10-31T11:13:49;13.10;98.80
28247;DHT22;34504;53.178;22.058;2022-10-31T11:19:19;13.10;98.60
28247;DHT22;34504;53.178;22.058;2022-10-31T11:21:48;13.20;98.50
28247;DHT22;34504;53.178;22.058;2022-10-31T11:24:24;13.20;98.60
28247;DHT22;34504;53.178;22.058;2022-10-31T11:27:16;13.20;98.60
28247;DHT22;34504;53.178;22.058;2022-10-31T11:29:44;13.20;98.60
28247;DHT22;34504;53.178;22.058;2022-10-31T11:32:24;13.30;98.60
28247;DHT22;34504;53.178;22.058;2022-10-31T11:34:59;13.30;98.50
28247;DHT22;34504;53.178;22.058;2022-10-31T11:37:41;13.30;98.60
28247;DHT22;34504;53.178;22.058;2022-10-31T11:40:22;13.30;98.50
28247;DHT22;34504;53.178;22.058;2022-10-31T11:42:53;13.30;98.50
28247;DHT22;34504;53.178;22.058;2022-10-31T11:45:31;13.30;98.40
28247;DHT22;34504;53.178;22.058;2022-10-31T11:48:01;13.40;98.20
28247;DHT22;34504;53.178;22.058;2022-10-31T11:50:40;13.30;98.40
28247;DHT22;34504;53.178;22.058;2022-10-31T11:53:16;13.40;98.30
28247;DHT22;34504;53.178;22.058;2022-10-31T11:55:45;13.40;98.30
28247;DHT22;34504;53.178;22.058;2022-10-31T11:58:23;13.40;98.00
28247;DHT22;34504;53.178;22.058;2022-10-31T12:00:54;13.40;98.10
28247;DHT22;34504;53.178;22.058;2022-10-31T12:06:03;13.40;98.30
28247;DHT22;34504;53.178;22.058;2022-10-31T12:08:37;13.50;98.20
28247;DHT22;34504;53.178;22.058;2022-10-31T12:13:51;13.50;98.20
28247;DHT22;34504;53.178;22.058;2022-10-31T12:41:47;13.70;98.00
28247;DHT22;34504;53.178;22.058;2022-10-31T12:58:31;13.70;97.60
28247;DHT22;34504;53.178;22.058;2022-10-31T13:01:17;13.70;97.70
28247;DHT22;34504;53.178;22.058;2022-10-31T13:03:57;13.70;97.70
28247;DHT22;34504;53.178;22.058;2022-10-31T13:06:38;13.70;97.70
28247;DHT22;34504;53.178;22.058;2022-10-31T13:09:22;13.70;97.70
28247;DHT22;34504;53.178;22.058;2022-10-31T13:12:12;13.80;97.70
28247;DHT22;34504;53.178;22.058;2022-10-31T13:14:45;13.80;97.60
28247;DHT22;34504;53.178;22.058;2022-10-31T13:17:33;13.80;97.70
28247;DHT22;34504;53.178;22.058;2022-10-31T13:20:41;13.80;97.70
28247;DHT22;34504;53.178;22.058;2022-10-31T13:26:21;13.80;97.70
28247;DHT22;34504;53.178;22.058;2022-10-31T13:29:09;13.80;97.80
28247;DHT22;34504;53.178;22.058;2022-10-31T13:31:43;13.80;97.80
28247;DHT22;34504;53.178;22.058;2022-10-31T13:42:42;13.70;97.40
28247;DHT22;34504;53.178;22.058;2022-10-31T13:45:14;13.70;97.60
28247;DHT22;34504;53.178;22.058;2022-10-31T13:47:43;13.60;97.60
28247;DHT22;34504;53.178;22.058;2022-10-31T13:50:28;13.70;97.70
28247;DHT22;34504;53.178;22.058;2022-10-31T13:53:21;13.60;97.60
28247;DHT22;34504;53.178;22.058;2022-10-31T13:58:36;13.60;97.50
28247;DHT22;34504;53.178;22.058;2022-10-31T14:03:40;13.50;97.60
28247;DHT22;34504;53.178;22.058;2022-10-31T14:06:44;13.60;97.60
28247;DHT22;34504;53.178;22.058;2022-10-31T14:09:29;13.50;97.70
28247;DHT22;34504;53.178;22.058;2022-10-31T14:12:08;13.50;97.80
28247;DHT22;34504;53.178;22.058;2022-10-31T14:14:48;13.50;97.80
28247;DHT22;34504;53.178;22.058;2022-10-31T14:17:28;13.50;97.80
28247;DHT22;34504;53.178;22.058;2022-10-31T14:20:33;13.50;97.80
28247;DHT22;34504;53.178;22.058;2022-10-31T14:22:51;13.40;97.80
28247;DHT22;34504;53.178;22.058;2022-10-31T14:28:32;13.40;97.80
28247;DHT22;34504;53.178;22.058;2022-10-31T14:31:01;13.40;97.80
28247;DHT22;34504;53.178;22.058;2022-10-31T14:33:31;13.30;98.00
28247;DHT22;34504;53.178;22.058;2022-10-31T14:36:10;13.30;98.00
28247;DHT22;34504;53.178;22.058;2022-10-31T14:39:13;13.30;98.10
28247;DHT22;34504;53.178;22.058;2022-10-31T14:41:50;13.20;98.20
28247;DHT22;34504;53.178;22.058;2022-10-31T14:44:30;13.20;98.20
28247;DHT22;34504;53.178;22.058;2022-10-31T14:47:36;13.20;98.30
28247;DHT22;34504;53.178;22.058;2022-10-31T14:50:24;13.10;98.40
28247;DHT22;34504;53.178;22.058;2022-10-31T14:53:01;13.10;98.50
28247;DHT22;34504;53.178;22.058;2022-10-31T14:55:31;13.00;98.60
28247;DHT22;34504;53.178;22.058;2022-10-31T14:58:04;13.00;98.60
28247;DHT22;34504;53.178;22.058;2022-10-31T15:00:34;13.00;98.70
28247;DHT22;34504;53.178;22.058;2022-10-31T15:03:24;12.90;98.70
28247;DHT22;34504;53.178;22.058;2022-10-31T15:05:58;12.90;98.90
28247;DHT22;34504;53.178;22.058;2022-10-31T15:08:35;12.90;99.00
28247;DHT22;34504;53.178;22.058;2022-10-31T15:11:19;12.90;99.00
28247;DHT22;34504;53.178;22.058;2022-10-31T15:13:55;12.80;99.10
28247;DHT22;34504;53.178;22.058;2022-10-31T15:16:24;12.70;99.10
28247;DHT22;34504;53.178;22.058;2022-10-31T15:18:59;12.70;99.20
28247;DHT22;34504;53.178;22.058;2022-10-31T15:21:28;12.70;99.30
28247;DHT22;34504;53.178;22.058;2022-10-31T15:23:59;12.70;99.30
28247;DHT22;34504;53.178;22.058;2022-10-31T15:26:40;12.60;99.30
28247;DHT22;34504;53.178;22.058;2022-10-31T15:29:17;12.60;99.30
28247;DHT22;34504;53.178;22.058;2022-10-31T15:32:15;12.50;99.40
28247;DHT22;34504;53.178;22.058;2022-10-31T15:34:45;12.50;99.50
28247;DHT22;34504;53.178;22.058;2022-10-31T15:37:18;12.50;99.50
28247;DHT22;34504;53.178;22.058;2022-10-31T15:39:48;12.40;99.60
28247;DHT22;34504;53.178;22.058;2022-10-31T15:47:30;12.30;99.80
28247;DHT22;34504;53.178;22.058;2022-10-31T15:50:00;12.20;99.80
28247;DHT22;34504;53.178;22.058;2022-10-31T15:55:05;12.20;99.90
28247;DHT22;34504;53.178;22.058;2022-10-31T15:57:47;12.10;99.90
28247;DHT22;34504;53.178;22.058;2022-10-31T16:00:23;12.00;99.90
28247;DHT22;34504;53.178;22.058;2022-10-31T16:05:49;12.00;99.90
28247;DHT22;34504;53.178;22.058;2022-10-31T16:08:22;12.00;99.90
28247;DHT22;34504;53.178;22.058;2022-10-31T16:10:52;11.90;99.90
28247;DHT22;34504;53.178;22.058;2022-10-31T16:13:32;11.90;99.90
28247;DHT22;34504;53.178;22.058;2022-10-31T16:16:02;11.80;99.90
28247;DHT22;34504;53.178;22.058;2022-10-31T16:18:53;11.80;99.90
28247;DHT22;34504;53.178;22.058;2022-10-31T16:21:27;11.80;99.90
28247;DHT22;34504;53.178;22.058;2022-10-31T16:24:04;11.80;99.90
28247;DHT22;34504;53.178;22.058;2022-10-31T16:26:34;11.70;99.90
28247;DHT22;34504;53.178;22.058;2022-10-31T16:29:01;11.70;99.90
28247;DHT22;34504;53.178;22.058;2022-10-31T16:31:37;11.60;99.90
28247;DHT22;34504;53.178;22.058;2022-10-31T16:34:20;11.60;99.90
28247;DHT22;34504;53.178;22.058;2022-10-31T16:36:53;11.60;99.90
28247;DHT22;34504;53.178;22.058;2022-10-31T16:39:21;11.60;99.90
28247;DHT22;34504;53.178;22.058;2022-10-31T16:41:56;11.50;99.90
28247;DHT22;34504;53.178;22.058;2022-10-31T16:44:25;11.50;99.90
28247;DHT22;34504;53.178;22.058;2022-10-31T16:47:13;11.40;99.90
28247;DHT22;34504;53.178;22.058;2022-10-31T16:49:43;11.40;99.90
28247;DHT22;34504;53.178;22.058;2022-10-31T16:52:11;11.40;99.90
28247;DHT22;34504;53.178;22.058;2022-10-31T16:54:40;11.30;99.90
28247;DHT22;34504;53.178;22.058;2022-10-31T16:57:13;11.30;99.90
28247;DHT22;34504;53.178;22.058;2022-10-31T16:59:42;11.30;99.90
28247;DHT22;34504;53.178;22.058;2022-10-31T17:02:15;11.20;99.90
28247;DHT22;34504;53.178;22.058;2022-10-31T17:04:44;11.20;99.90
28247;DHT22;34504;53.178;22.058;2022-10-31T17:07:15;11.20;99.90
28247;DHT22;34504;53.178;22.058;2022-10-31T17:09:43;11.10;99.90
28247;DHT22;34504;53.178;22.058;2022-10-31T17:12:17;11.10;99.90
28247;DHT22;34504;53.178;22.058;2022-10-31T17:14:50;11.10;99.90
28247;DHT22;34504;53.178;22.058;2022-10-31T17:17:19;11.00;99.90
28247;DHT22;34504;53.178;22.058;2022-10-31T17:19:47;11.00;99.90
28247;DHT22;34504;53.178;22.058;2022-10-31T17:22:15;11.00;99.90
28247;DHT22;34504;53.178;22.058;2022-10-31T17:24:43;11.00;99.90
28247;DHT22;34504;53.178;22.058;2022-10-31T17:27:11;11.00;99.90
28247;DHT22;34504;53.178;22.058;2022-10-31T17:29:39;11.00;99.90
28247;DHT22;34504;53.178;22.058;2022-10-31T17:32:07;10.90;99.90
28247;DHT22;34504;53.178;22.058;2022-10-31T17:34:35;10.90;99.90
28247;DHT22;34504;53.178;22.058;2022-10-31T17:37:03;10.90;99.90
28247;DHT22;34504;53.178;22.058;2022-10-31T17:39:31;10.90;99.90
28247;DHT22;34504;53.178;22.058;2022-10-31T17:41:59;10.90;99.90
28247;DHT22;34504;53.178;22.058;2022-10-31T17:44:26;10.90;99.90
28247;DHT22;34504;53.178;22.058;2022-10-31T17:46:55;10.80;99.90
28247;DHT22;34504;53.178;22.058;2022-10-31T17:49:23;10.80;99.90
28247;DHT22;34504;53.178;22.058;2022-10-31T17:51:59;10.80;99.90
28247;DHT22;34504;53.178;22.058;2022-10-31T17:54:27;10.80;99.90
28247;DHT22;34504;53.178;22.058;2022-10-31T17:56:55;10.80;99.90
28247;DHT22;34504;53.178;22.058;2022-10-31T17:59:23;10.80;99.90
28247;DHT22;34504;53.178;22.058;2022-10-31T18:01:55;10.70;99.90
28247;DHT22;34504;53.178;22.058;2022-10-31T18:04:23;10.70;99.90
28247;DHT22;34504;53.178;22.058;2022-10-31T18:06:51;10.70;99.90
28247;DHT22;34504;53.178;22.058;2022-10-31T18:09:19;10.70;99.90
28247;DHT22;34504;53.178;22.058;2022-10-31T18:11:47;10.60;99.90
28247;DHT22;34504;53.178;22.058;2022-10-31T18:14:15;10.60;99.90
28247;DHT22;34504;53.178;22.058;2022-10-31T18:16:43;10.60;99.90
28247;DHT22;34504;53.178;22.058;2022-10-31T18:19:15;10.60;99.90
28247;DHT22;34504;53.178;22.058;2022-10-31T18:21:44;10.60;99.90
28247;DHT22;34504;53.178;22.058;2022-10-31T18:24:13;10.50;99.90
28247;DHT22;34504;53.178;22.058;2022-10-31T18:26:41;10.50;99.90
28247;DHT22;34504;53.178;22.058;2022-10-31T18:29:10;10.50;99.90
28247;DHT22;34504;53.178;22.058;2022-10-31T18:31:38;10.50;99.90
28247;DHT22;34504;53.178;22.058;2022-10-31T18:34:06;10.50;99.90
28247;DHT22;34504;53.178;22.058;2022-10-31T18:36:34;10.40;99.90
28247;DHT22;34504;53.178;22.058;2022-10-31T18:39:02;10.40;99.90
28247;DHT22;34504;53.178;22.058;2022-10-31T18:41:30;10.40;99.90
28247;DHT22;34504;53.178;22.058;2022-10-31T18:43:58;10.40;99.90